ANA1729 ROAH-ROMY
Flight info
| Callsign | ANA1729 |
|---|---|
| Flight time | 0h 31m |
| Altitude | 22000 |
| Route | GANJU Y576 YUTAH |
| Aircraft | A320/M-SDE2E3FGHIRWXY/LB1 |
Departure
| Time | 2026-04-22 12:03 |
|---|---|
| Airport | Naha International Airport (ROAH) |
Arrival
| Time | 2026-04-22 12:34 |
|---|---|
| Airport | Miyako Airport (ROMY) |
| Time | Latitude | Longitude | Altitude | Speed | Heading |
|---|---|---|---|---|---|
| 2026-04-22 12:02 | 26.17496 | 127.64684 | 1053 ft | 162 kts | 180° |
| 2026-04-22 12:03 | 26.16945 | 127.64710 | 1378 ft | 161 kts | 180° |
| 2026-04-22 12:03 | 26.15778 | 127.64761 | 1857 ft | 175 kts | 181° |
| 2026-04-22 12:03 | 26.14501 | 127.64816 | 2306 ft | 192 kts | 181° |
| 2026-04-22 12:03 | 26.13091 | 127.64874 | 2679 ft | 215 kts | 181° |
| 2026-04-22 12:04 | 26.11538 | 127.64799 | 3141 ft | 232 kts | 192° |
| 2026-04-22 12:04 | 26.10026 | 127.64138 | 3630 ft | 245 kts | 221° |
| 2026-04-22 12:04 | 26.09056 | 127.62576 | 4395 ft | 252 kts | 250° |
| 2026-04-22 12:04 | 26.08632 | 127.60717 | 5279 ft | 253 kts | 255° |
| 2026-04-22 12:05 | 26.08193 | 127.58817 | 6129 ft | 256 kts | 253° |
| 2026-04-22 12:05 | 26.07733 | 127.56894 | 6933 ft | 260 kts | 254° |
| 2026-04-22 12:05 | 26.07269 | 127.54962 | 7694 ft | 264 kts | 254° |
| 2026-04-22 12:05 | 26.06792 | 127.52981 | 8421 ft | 268 kts | 255° |
| 2026-04-22 12:06 | 26.06314 | 127.50991 | 9134 ft | 272 kts | 255° |
| 2026-04-22 12:06 | 26.05824 | 127.48950 | 9850 ft | 275 kts | 255° |
| 2026-04-22 12:06 | 26.05338 | 127.46918 | 10500 ft | 279 kts | 255° |
| 2026-04-22 12:06 | 26.04826 | 127.44781 | 10844 ft | 295 kts | 255° |
| 2026-04-22 12:07 | 26.04278 | 127.42495 | 11143 ft | 312 kts | 255° |
| 2026-04-22 12:07 | 26.03709 | 127.40128 | 11413 ft | 328 kts | 255° |
| 2026-04-22 12:07 | 26.03099 | 127.37595 | 11693 ft | 343 kts | 255° |
| 2026-04-22 12:07 | 26.02483 | 127.35040 | 12173 ft | 349 kts | 255° |
| 2026-04-22 12:08 | 26.01853 | 127.32427 | 12793 ft | 351 kts | 255° |
| 2026-04-22 12:08 | 26.01223 | 127.29814 | 13410 ft | 353 kts | 255° |
| 2026-04-22 12:08 | 26.00588 | 127.27180 | 13971 ft | 355 kts | 255° |
| 2026-04-22 12:08 | 25.99947 | 127.24528 | 14508 ft | 358 kts | 255° |
| 2026-04-22 12:09 | 25.99299 | 127.21849 | 15038 ft | 361 kts | 255° |
| 2026-04-22 12:09 | 25.98649 | 127.19162 | 15532 ft | 364 kts | 255° |
| 2026-04-22 12:09 | 25.97981 | 127.16406 | 16032 ft | 366 kts | 255° |
| 2026-04-22 12:09 | 25.97323 | 127.13694 | 16519 ft | 368 kts | 255° |
| 2026-04-22 12:10 | 25.96639 | 127.10879 | 16972 ft | 371 kts | 255° |
| 2026-04-22 12:10 | 25.95963 | 127.08098 | 17409 ft | 374 kts | 255° |
| 2026-04-22 12:10 | 25.95279 | 127.05291 | 17840 ft | 377 kts | 255° |
| 2026-04-22 12:10 | 25.94598 | 127.02493 | 18272 ft | 378 kts | 255° |
| 2026-04-22 12:11 | 25.93901 | 126.99631 | 18694 ft | 380 kts | 255° |
| 2026-04-22 12:11 | 25.93208 | 126.96788 | 19082 ft | 383 kts | 255° |
| 2026-04-22 12:11 | 25.92513 | 126.93941 | 19452 ft | 385 kts | 255° |
| 2026-04-22 12:11 | 25.91806 | 126.91051 | 19787 ft | 388 kts | 255° |
| 2026-04-22 12:12 | 25.91097 | 126.88152 | 20143 ft | 390 kts | 255° |
| 2026-04-22 12:12 | 25.90386 | 126.85248 | 20496 ft | 392 kts | 255° |
| 2026-04-22 12:12 | 25.89672 | 126.82339 | 20850 ft | 394 kts | 255° |
| 2026-04-22 12:12 | 25.88932 | 126.79321 | 21193 ft | 395 kts | 255° |
| 2026-04-22 12:13 | 25.88199 | 126.76374 | 21506 ft | 397 kts | 254° |
| 2026-04-22 12:13 | 25.87306 | 126.73462 | 21809 ft | 399 kts | 250° |
| 2026-04-22 12:13 | 25.86232 | 126.70663 | 21881 ft | 400 kts | 246° |
| 2026-04-22 12:13 | 25.84945 | 126.67911 | 21884 ft | 399 kts | 243° |
| 2026-04-22 12:14 | 25.83586 | 126.65245 | 21885 ft | 399 kts | 242° |
| 2026-04-22 12:14 | 25.82211 | 126.62569 | 21885 ft | 399 kts | 242° |
| 2026-04-22 12:14 | 25.80836 | 126.59897 | 21885 ft | 399 kts | 242° |
| 2026-04-22 12:14 | 25.79458 | 126.57217 | 21886 ft | 400 kts | 242° |
| 2026-04-22 12:15 | 25.78074 | 126.54529 | 21885 ft | 400 kts | 242° |
| 2026-04-22 12:15 | 25.76709 | 126.51876 | 21887 ft | 401 kts | 242° |
| 2026-04-22 12:15 | 25.75312 | 126.49163 | 21891 ft | 401 kts | 242° |
| 2026-04-22 12:15 | 25.73938 | 126.46494 | 21893 ft | 401 kts | 242° |
| 2026-04-22 12:16 | 25.72552 | 126.43803 | 21894 ft | 400 kts | 242° |
| 2026-04-22 12:16 | 25.71186 | 126.41154 | 21893 ft | 401 kts | 242° |
| 2026-04-22 12:16 | 25.69796 | 126.38457 | 21893 ft | 400 kts | 242° |
| 2026-04-22 12:16 | 25.68417 | 126.35785 | 21891 ft | 401 kts | 242° |
| 2026-04-22 12:17 | 25.67038 | 126.33115 | 21893 ft | 401 kts | 242° |
| 2026-04-22 12:17 | 25.65654 | 126.30437 | 21893 ft | 401 kts | 242° |
| 2026-04-22 12:17 | 25.64269 | 126.27757 | 21892 ft | 401 kts | 242° |
| 2026-04-22 12:17 | 25.62884 | 126.25079 | 21887 ft | 400 kts | 242° |
| 2026-04-22 12:18 | 25.61519 | 126.22442 | 21606 ft | 396 kts | 242° |
| 2026-04-22 12:18 | 25.60153 | 126.19803 | 20959 ft | 395 kts | 242° |
| 2026-04-22 12:18 | 25.58785 | 126.17163 | 20368 ft | 391 kts | 242° |
| 2026-04-22 12:18 | 25.57440 | 126.14570 | 19783 ft | 388 kts | 242° |
| 2026-04-22 12:19 | 25.56123 | 126.12032 | 19207 ft | 384 kts | 242° |
| 2026-04-22 12:19 | 25.54793 | 126.09467 | 18607 ft | 381 kts | 242° |
| 2026-04-22 12:19 | 25.53482 | 126.06942 | 18032 ft | 378 kts | 242° |
| 2026-04-22 12:19 | 25.52186 | 126.04450 | 17463 ft | 375 kts | 242° |
| 2026-04-22 12:20 | 25.50891 | 126.01957 | 16887 ft | 373 kts | 242° |
| 2026-04-22 12:20 | 25.49605 | 125.99484 | 16317 ft | 370 kts | 242° |
| 2026-04-22 12:20 | 25.48322 | 125.97019 | 15747 ft | 368 kts | 242° |
| 2026-04-22 12:20 | 25.47060 | 125.94595 | 15181 ft | 366 kts | 242° |
| 2026-04-22 12:21 | 25.45787 | 125.92151 | 14643 ft | 362 kts | 242° |
| 2026-04-22 12:21 | 25.44551 | 125.89778 | 14090 ft | 360 kts | 241° |
| 2026-04-22 12:21 | 25.43304 | 125.87389 | 13532 ft | 358 kts | 241° |
| 2026-04-22 12:21 | 25.42057 | 125.85000 | 12966 ft | 355 kts | 241° |
| 2026-04-22 12:22 | 25.40831 | 125.82652 | 12619 ft | 346 kts | 241° |
| 2026-04-22 12:22 | 25.39663 | 125.80419 | 12410 ft | 334 kts | 241° |
| 2026-04-22 12:22 | 25.38518 | 125.78232 | 12208 ft | 322 kts | 241° |
| 2026-04-22 12:22 | 25.37415 | 125.76123 | 12012 ft | 311 kts | 241° |
| 2026-04-22 12:23 | 25.36354 | 125.74098 | 11826 ft | 300 kts | 241° |
| 2026-04-22 12:23 | 25.35192 | 125.72208 | 11625 ft | 294 kts | 230° |
| 2026-04-22 12:23 | 25.33611 | 125.70670 | 11394 ft | 310 kts | 217° |
| 2026-04-22 12:23 | 25.31801 | 125.69357 | 11159 ft | 313 kts | 215° |
| 2026-04-22 12:24 | 25.29973 | 125.68076 | 10917 ft | 309 kts | 214° |
| 2026-04-22 12:24 | 25.28175 | 125.66819 | 10685 ft | 300 kts | 215° |
| 2026-04-22 12:24 | 25.26425 | 125.65593 | 10488 ft | 291 kts | 215° |
| 2026-04-22 12:24 | 25.24739 | 125.64407 | 10161 ft | 287 kts | 215° |
| 2026-04-22 12:25 | 25.23050 | 125.63213 | 9749 ft | 287 kts | 215° |
| 2026-04-22 12:25 | 25.21379 | 125.62030 | 9351 ft | 286 kts | 215° |
| 2026-04-22 12:25 | 25.19712 | 125.60849 | 8989 ft | 284 kts | 215° |
| 2026-04-22 12:25 | 25.18046 | 125.59669 | 8652 ft | 281 kts | 215° |
| 2026-04-22 12:26 | 25.16406 | 125.58510 | 8316 ft | 278 kts | 215° |
| 2026-04-22 12:26 | 25.14791 | 125.57368 | 7973 ft | 275 kts | 214° |
| 2026-04-22 12:26 | 25.13197 | 125.56240 | 7625 ft | 273 kts | 214° |
| 2026-04-22 12:26 | 25.11595 | 125.55108 | 7277 ft | 270 kts | 214° |
| 2026-04-22 12:27 | 25.10020 | 125.53995 | 6944 ft | 267 kts | 214° |
| 2026-04-22 12:27 | 25.08451 | 125.52885 | 6603 ft | 265 kts | 214° |
| 2026-04-22 12:27 | 25.06920 | 125.51804 | 6267 ft | 262 kts | 214° |
| 2026-04-22 12:27 | 25.05390 | 125.50723 | 5920 ft | 260 kts | 214° |
| 2026-04-22 12:28 | 25.03874 | 125.49654 | 5570 ft | 258 kts | 214° |
| 2026-04-22 12:28 | 25.02370 | 125.48591 | 5220 ft | 256 kts | 214° |
| 2026-04-22 12:28 | 25.00874 | 125.47536 | 4863 ft | 254 kts | 214° |
| 2026-04-22 12:28 | 24.99380 | 125.46481 | 4515 ft | 252 kts | 214° |
| 2026-04-22 12:29 | 24.97848 | 125.45571 | 4157 ft | 252 kts | 202° |
| 2026-04-22 12:29 | 24.96195 | 125.44960 | 3955 ft | 243 kts | 203° |
| 2026-04-22 12:29 | 24.94724 | 125.44141 | 3772 ft | 234 kts | 215° |
| 2026-04-22 12:29 | 24.93495 | 125.43016 | 3429 ft | 227 kts | 224° |
| 2026-04-22 12:30 | 24.91249 | 125.40780 | 2787 ft | 209 kts | 218° |
| 2026-04-22 12:30 | 24.90129 | 125.39805 | 2636 ft | 200 kts | 219° |
| 2026-04-22 12:30 | 24.89074 | 125.38870 | 2513 ft | 190 kts | 219° |
| 2026-04-22 12:31 | 24.88074 | 125.37970 | 2436 ft | 177 kts | 219° |
| 2026-04-22 12:31 | 24.87148 | 125.37157 | 2318 ft | 164 kts | 217° |
| 2026-04-22 12:31 | 24.86248 | 125.36394 | 2075 ft | 160 kts | 218° |
| 2026-04-22 12:31 | 24.85403 | 125.35648 | 1803 ft | 152 kts | 218° |
| 2026-04-22 12:32 | 24.84616 | 125.34952 | 1612 ft | 138 kts | 217° |
| 2026-04-22 12:32 | 24.83183 | 125.33680 | 1155 ft | 129 kts | 215° |
| 2026-04-22 12:32 | 24.82468 | 125.33094 | 980 ft | 127 kts | 215° |
| 2026-04-22 12:33 | 24.81766 | 125.32498 | 816 ft | 128 kts | 216° |
| 2026-04-22 12:33 | 24.81055 | 125.31902 | 675 ft | 131 kts | 216° |
| 2026-04-22 12:33 | 24.80328 | 125.31280 | 510 ft | 131 kts | 217° |
| 2026-04-22 12:33 | 24.79617 | 125.30666 | 331 ft | 129 kts | 216° |
| 2026-04-22 12:34 | 24.78909 | 125.30053 | 175 ft | 127 kts | 217° |
| 2026-04-22 12:34 | 24.78294 | 125.29525 | 153 ft | 90 kts | 217° |
| 2026-04-22 12:34 | 24.77948 | 125.29224 | 143 ft | 34 kts | 218° |
| 2026-04-22 12:34 | 24.77851 | 125.29152 | 140 ft | 6 kts | 186° |
| 2026-04-22 12:35 | 24.77850 | 125.29140 | 140 ft | 5 kts | 15° |
| 2026-04-22 12:35 | 24.77882 | 125.29166 | 141 ft | 5 kts | 38° |
| 2026-04-22 12:35 | 24.77913 | 125.29192 | 142 ft | 6 kts | 38° |
| 2026-04-22 12:35 | 24.77950 | 125.29225 | 143 ft | 7 kts | 39° |
| 2026-04-22 12:36 | 24.77998 | 125.29267 | 144 ft | 9 kts | 39° |
| 2026-04-22 12:36 | 24.78056 | 125.29318 | 146 ft | 11 kts | 39° |
| 2026-04-22 12:36 | 24.78107 | 125.29383 | 148 ft | 10 kts | 80° |
| 2026-04-22 12:36 | 24.78074 | 125.29452 | 149 ft | 11 kts | 128° |
| 2026-04-22 12:37 | 24.78017 | 125.29527 | 149 ft | 12 kts | 131° |
| 2026-04-22 12:37 | 24.77970 | 125.29589 | 152 ft | 9 kts | 127° |
| 2026-04-22 12:37 | 24.77949 | 125.29619 | 152 ft | 0 kts | 131° |